createdAt,value
2023-02-11T00:00:10.689Z,55.00
2023-02-11T00:05:13.679Z,55.00
2023-02-11T00:10:16.795Z,55.10
2023-02-11T00:15:21.259Z,55.07
2023-02-11T00:20:24.211Z,55.05
2023-02-11T00:25:27.031Z,54.97
2023-02-11T00:30:31.217Z,54.89
2023-02-11T00:35:34.003Z,54.81
2023-02-11T00:40:36.913Z,54.84
2023-02-11T00:45:41.183Z,54.84
2023-02-11T00:50:44.006Z,54.88
2023-02-11T00:55:46.776Z,54.86
2023-02-11T01:00:51.075Z,54.77
2023-02-11T01:05:54.276Z,54.87
2023-02-11T01:10:58.350Z,54.75
2023-02-11T01:16:02.889Z,54.77
2023-02-11T01:21:06.181Z,54.91
2023-02-11T01:26:09.038Z,54.96
2023-02-11T01:31:13.259Z,55.03
2023-02-11T01:36:16.085Z,54.90
2023-02-11T01:41:18.861Z,55.09
2023-02-11T01:46:30.944Z,54.93
2023-02-11T01:51:38.746Z,54.87
2023-02-11T01:57:04.629Z,55.12
2023-02-11T02:02:13.556Z,54.95
2023-02-11T02:07:26.349Z,54.89
2023-02-11T02:12:29.237Z,54.94
2023-02-11T02:17:45.700Z,55.14
2023-02-11T02:23:14.930Z,54.83
2023-02-11T02:28:43.909Z,54.92
2023-02-11T02:33:56.242Z,55.11
2023-02-11T02:39:04.172Z,55.00
2023-02-11T02:44:09.138Z,55.23
2023-02-11T02:49:15.177Z,55.38
2023-02-11T02:54:35.838Z,55.14
2023-02-11T02:59:52.599Z,55.29
2023-02-11T03:05:04.969Z,55.28
2023-02-11T03:10:14.418Z,55.41
2023-02-11T03:15:20.396Z,55.33
2023-02-11T03:20:24.918Z,55.39
2023-02-11T03:25:33.395Z,55.54
2023-02-11T03:30:41.532Z,55.47
2023-02-11T03:35:51.840Z,55.61
2023-02-11T03:40:57.494Z,55.32
2023-02-11T03:46:03.229Z,55.21
2023-02-11T03:51:10.540Z,55.12
2023-02-11T03:56:18.702Z,55.32
2023-02-11T04:01:21.772Z,55.65
2023-02-11T04:06:25.893Z,55.49
2023-02-11T04:11:28.743Z,55.51
2023-02-11T04:16:31.912Z,55.31
2023-02-11T04:21:36.100Z,55.32
2023-02-11T04:26:38.861Z,55.38
2023-02-11T04:31:41.665Z,55.25
2023-02-11T04:36:45.888Z,55.32
2023-02-11T04:41:48.836Z,55.49
2023-02-11T04:46:51.690Z,55.40
2023-02-11T04:51:56.163Z,55.36
2023-02-11T04:56:58.920Z,55.47
2023-02-11T05:02:01.669Z,55.50
2023-02-11T05:07:05.791Z,55.28
2023-02-11T05:12:08.765Z,55.30
2023-02-11T05:17:11.536Z,55.35
2023-02-11T05:22:15.669Z,55.59
2023-02-11T05:27:18.552Z,55.35
2023-02-11T05:32:21.355Z,55.67
2023-02-11T05:37:25.547Z,55.51
2023-02-11T05:42:28.480Z,55.34
2023-02-11T05:47:31.307Z,55.24
2023-02-11T05:52:35.578Z,55.51
2023-02-11T05:57:38.428Z,55.64
2023-02-11T06:02:41.347Z,55.68
2023-02-11T06:07:45.491Z,55.72
2023-02-11T06:12:48.511Z,55.65
2023-02-11T06:17:52.121Z,55.56
2023-02-11T06:22:56.370Z,55.48
2023-02-11T06:27:59.181Z,55.57
2023-02-11T06:33:01.962Z,56.09
2023-02-11T06:38:06.085Z,56.08
2023-02-11T06:43:08.872Z,56.00
2023-02-11T06:48:11.630Z,55.97
2023-02-11T06:53:15.777Z,55.65
2023-02-11T06:58:18.570Z,55.67
2023-02-11T07:03:21.438Z,55.71
2023-02-11T07:08:25.564Z,55.66
2023-02-11T07:13:28.424Z,55.55
2023-02-11T07:18:31.266Z,55.40
2023-02-11T07:23:36.142Z,55.25
2023-02-11T07:28:40.063Z,55.34
2023-02-11T07:33:43.255Z,55.35
2023-02-11T07:38:47.528Z,54.84
2023-02-11T07:43:50.826Z,54.79
2023-02-11T07:48:54.933Z,55.01
2023-02-11T07:54:00.585Z,54.87
2023-02-11T07:59:05.266Z,55.03
2023-02-11T08:04:08.054Z,55.23
2023-02-11T08:09:16.199Z,53.25
2023-02-11T08:14:20.392Z,52.41
2023-02-11T08:19:23.175Z,51.60
2023-02-11T08:24:27.304Z,50.14
2023-02-11T08:29:30.491Z,49.92
2023-02-11T08:34:33.927Z,49.04
2023-02-11T08:39:38.482Z,48.81
2023-02-11T08:44:41.384Z,45.50
2023-02-11T08:49:44.181Z,47.08
2023-02-11T08:54:48.322Z,47.17
2023-02-11T08:59:51.075Z,47.44
2023-02-11T09:04:53.915Z,47.77
2023-02-11T09:09:58.019Z,48.36
2023-02-11T09:15:00.998Z,48.68
2023-02-11T09:20:04.089Z,48.80
2023-02-11T09:25:08.848Z,48.98
2023-02-11T09:30:12.724Z,48.95
2023-02-11T09:35:15.541Z,49.19
2023-02-11T09:40:21.234Z,49.31
2023-02-11T09:45:26.414Z,49.25
2023-02-11T09:50:33.494Z,49.49
2023-02-11T09:55:42.808Z,49.65
2023-02-11T10:00:49.830Z,49.69
2023-02-11T10:06:10.685Z,49.62
2023-02-11T10:11:31.166Z,49.72
2023-02-11T10:16:51.216Z,49.91
2023-02-11T10:22:03.248Z,49.97
2023-02-11T10:27:17.581Z,49.98
2023-02-11T10:32:30.716Z,50.31
2023-02-11T10:37:33.451Z,50.62
2023-02-11T10:42:37.864Z,50.58
2023-02-11T10:47:42.283Z,50.63
2023-02-11T10:52:45.028Z,51.30
2023-02-11T10:57:56.581Z,51.74
2023-02-11T11:03:02.066Z,51.35
2023-02-11T11:08:08.744Z,51.26
2023-02-11T11:13:31.469Z,52.50
2023-02-11T11:18:34.231Z,52.42
2023-02-11T11:23:38.877Z,52.64
2023-02-11T11:29:00.009Z,52.87
2023-02-11T11:34:07.224Z,52.74
2023-02-11T11:39:24.186Z,53.07
2023-02-11T11:44:33.460Z,53.13
2023-02-11T11:49:40.681Z,52.21
2023-02-11T11:54:47.654Z,52.27
2023-02-11T11:59:51.970Z,51.98
2023-02-11T12:05:03.060Z,52.53
2023-02-11T12:10:29.151Z,52.56
2023-02-11T12:15:37.562Z,52.74
2023-02-11T12:21:00.968Z,52.87
2023-02-11T12:26:14.364Z,53.20
2023-02-11T12:31:33.571Z,53.01
2023-02-11T12:36:54.427Z,52.63
2023-02-11T12:42:37.365Z,52.79
2023-02-11T12:47:54.622Z,52.52
2023-02-11T12:53:11.544Z,52.48
2023-02-11T12:58:19.931Z,52.59
2023-02-11T13:03:31.927Z,52.47
2023-02-11T13:08:39.351Z,52.21
2023-02-11T13:13:53.679Z,52.30
2023-02-11T13:19:05.017Z,52.31
2023-02-11T13:24:20.761Z,52.54
2023-02-11T13:29:32.873Z,52.20
2023-02-11T13:35:01.568Z,52.19
2023-02-11T13:40:07.737Z,52.36
2023-02-11T13:45:19.681Z,51.96
2023-02-11T13:50:26.458Z,51.36
2023-02-11T13:55:30.405Z,51.04
2023-02-11T14:00:49.716Z,50.84
2023-02-11T14:06:33.520Z,50.90
2023-02-11T14:11:51.937Z,50.72
2023-02-11T14:17:21.214Z,53.03
2023-02-11T14:22:29.529Z,54.87
2023-02-11T14:27:38.609Z,55.28
2023-02-11T14:32:54.119Z,53.77
2023-02-11T14:38:07.756Z,53.13
2023-02-11T14:43:16.311Z,52.92
2023-02-11T14:48:21.897Z,52.86
2023-02-11T14:53:29.398Z,53.30
2023-02-11T14:58:34.329Z,53.23
2023-02-11T15:03:38.847Z,53.20
2023-02-11T15:08:48.318Z,53.20
2023-02-11T15:13:55.078Z,53.19
2023-02-11T15:19:05.610Z,53.26
2023-02-11T15:24:25.449Z,53.09
2023-02-11T15:29:29.980Z,52.76
2023-02-11T15:34:32.886Z,52.91
2023-02-11T15:39:41.001Z,52.74
2023-02-11T15:44:44.143Z,52.95
2023-02-11T15:49:48.788Z,52.80
2023-02-11T15:54:54.889Z,52.82
2023-02-11T15:59:59.138Z,53.01
2023-02-11T16:05:05.576Z,53.00
2023-02-11T16:10:20.488Z,52.86
2023-02-11T16:15:32.482Z,52.98
2023-02-11T16:20:35.331Z,52.78
2023-02-11T16:25:43.414Z,53.37
2023-02-11T16:30:46.284Z,53.13
2023-02-11T16:35:49.255Z,53.02
2023-02-11T16:40:53.623Z,53.15
2023-02-11T16:45:56.581Z,53.08
2023-02-11T16:50:59.796Z,53.26
2023-02-11T16:56:04.290Z,53.08
2023-02-11T17:01:08.091Z,52.97
2023-02-11T17:06:11.874Z,53.06
2023-02-11T17:11:16.719Z,53.25
2023-02-11T17:16:22.421Z,52.97
2023-02-11T17:21:28.870Z,52.95
2023-02-11T17:26:35.337Z,52.92
2023-02-11T17:31:39.458Z,53.35
2023-02-11T17:36:42.564Z,52.98
2023-02-11T17:41:46.797Z,53.09
2023-02-11T17:46:49.619Z,53.67
2023-02-11T17:51:52.581Z,53.43
2023-02-11T17:56:58.450Z,53.26
2023-02-11T18:02:01.480Z,53.42
2023-02-11T18:07:04.335Z,53.33
2023-02-11T18:12:10.627Z,53.68
2023-02-11T18:17:13.449Z,53.79
2023-02-11T18:22:16.960Z,53.48
2023-02-11T18:27:21.327Z,53.44
2023-02-11T18:32:24.151Z,54.22
2023-02-11T18:37:27.067Z,53.94
2023-02-11T18:42:32.925Z,53.94
2023-02-11T18:47:37.783Z,53.92
2023-02-11T18:52:40.789Z,54.33
2023-02-11T18:57:44.900Z,54.07
2023-02-11T19:02:47.728Z,54.07
2023-02-11T19:07:50.714Z,54.11
2023-02-11T19:12:56.376Z,54.14
2023-02-11T19:17:59.215Z,54.25
2023-02-11T19:23:02.114Z,54.33
2023-02-11T19:28:06.617Z,54.00
2023-02-11T19:33:10.343Z,53.91
2023-02-11T19:38:13.962Z,53.65
2023-02-11T19:43:18.208Z,53.89
2023-02-11T19:48:21.092Z,54.04
2023-02-11T19:53:24.221Z,53.86
2023-02-11T19:58:28.384Z,54.09
2023-02-11T20:03:31.178Z,53.98
2023-02-11T20:08:34.466Z,54.15
2023-02-11T20:13:39.348Z,54.12
2023-02-11T20:18:42.360Z,54.17
2023-02-11T20:23:46.661Z,54.12
2023-02-11T20:28:52.600Z,54.37
2023-02-11T20:33:56.391Z,54.35
2023-02-11T20:39:00.297Z,54.09
2023-02-11T20:44:06.337Z,53.88
2023-02-11T20:49:11.125Z,54.66
2023-02-11T20:54:17.318Z,54.40
2023-02-11T20:59:21.990Z,54.53
2023-02-11T21:04:27.243Z,54.41
2023-02-11T21:09:32.561Z,54.64
2023-02-11T21:14:36.776Z,54.67
2023-02-11T21:19:39.908Z,54.61
2023-02-11T21:24:42.753Z,54.47
2023-02-11T21:29:54.265Z,54.55
2023-02-11T21:34:57.615Z,54.63
2023-02-11T21:40:00.568Z,54.67
2023-02-11T21:45:05.349Z,54.74
2023-02-11T21:50:09.010Z,54.72
2023-02-11T21:55:12.108Z,54.68
2023-02-11T22:00:18.103Z,54.28
2023-02-11T22:05:21.315Z,54.31
2023-02-11T22:10:24.469Z,54.66
2023-02-11T22:15:28.855Z,54.56
2023-02-11T22:20:31.729Z,54.70
2023-02-11T22:25:34.455Z,54.80
2023-02-11T22:30:38.729Z,54.90
2023-02-11T22:35:41.485Z,54.86
2023-02-11T22:40:44.620Z,54.98
2023-02-11T22:45:48.949Z,55.13
2023-02-11T22:50:51.838Z,55.18
2023-02-11T22:55:54.957Z,55.06
2023-02-11T23:00:59.615Z,54.81
2023-02-11T23:06:02.861Z,55.10
2023-02-11T23:11:07.906Z,54.90
2023-02-11T23:16:14.061Z,55.11
2023-02-11T23:21:19.157Z,55.24
2023-02-11T23:26:21.960Z,55.16
2023-02-11T23:31:29.129Z,55.25
2023-02-11T23:36:33.893Z,55.29
2023-02-11T23:41:36.907Z,55.40
2023-02-11T23:46:41.085Z,55.23
2023-02-11T23:51:44.245Z,55.37
2023-02-11T23:56:47.101Z,55.50
